Terminal Aerodrome Forecast
Issued by NWS

Home | Current Version | Previous Version | Text Only | Print | Product List | Glossary On
Versions: 1 2 3 4 5 6 7 8 9 10 11 12 13 14 15 16 17 18 19 20 21 22 23 24 25 26 27 28 29 30 31 32 33 34 35 36 37 38 39 40 41 42 43 44
000
FTUS42 KGSP 050004 RRA
TAFHKY
TAF
KHKY 050004Z 0500/0524 20010G19KT P6SM SCT060
     FM050300 22007KT P6SM BKN060
     FM050700 25008KT 5SM BR OVC008
     FM050900 30006KT 4SM -RA BR OVC008
     FM051400 01006KT 2SM -RA BR OVC008
     FM052200 01007KT P6SM OVC008=

USA.gov is the U.S. government's official web portal to all federal, state and local government web resources and services.